Time;durP1;ratioP1;P1;durP2;ratioP2;P2;SDS_P1;SDS_P2;PMS_P1;PMS_P2;Temp;Humidity;BMP_temperature;BMP_pressure;BME280_temperature;BME280_humidity;BME280_pressure;Samples;Min_cycle;Max_cycle;Signal;HPM_P1;HPM_P2
2022/11/25 00:00:51;;;;;;;18.30;4.28;;;;;;;7.73;100.00;100776.81;6119889;23;20009;-84
2022/11/25 00:03:16;;;;;;;17.75;4.40;;;;;;;7.73;100.00;100764.47;6119122;23;20512;-84
2022/11/25 00:05:42;;;;;;;15.05;3.83;;;;;;;7.70;100.00;100763.72;6092536;23;20028;-83
2022/11/25 00:08:07;;;;;;;15.93;3.97;;;;;;;7.65;100.00;100747.13;6119305;23;20002;-82
2022/11/25 00:10:32;;;;;;;22.63;4.80;;;;;;;7.73;100.00;100760.94;6093096;23;20008;-84
2022/11/25 00:12:57;;;;;;;18.77;3.97;;;;;;;7.69;100.00;100761.97;6120459;23;20009;-84
2022/11/25 00:15:23;;;;;;;15.25;4.00;;;;;;;7.71;100.00;100765.44;6120014;23;20041;-84
2022/11/25 00:17:48;;;;;;;22.92;4.82;;;;;;;7.69;100.00;100754.91;6120828;23;20064;-84
2022/11/25 00:20:13;;;;;;;18.98;4.78;;;;;;;7.74;100.00;100752.94;6120962;23;20054;-83
2022/11/25 00:22:39;;;;;;;15.98;4.10;;;;;;;7.73;100.00;100739.72;6119217;23;20002;-83
2022/11/25 00:25:04;;;;;;;15.20;4.85;;;;;;;7.79;100.00;100750.09;6118670;23;20068;-84
2022/11/25 00:27:30;;;;;;;13.73;4.05;;;;;;;7.78;100.00;100742.22;6120578;23;20006;-84
2022/11/25 00:29:55;;;;;;;13.35;4.20;;;;;;;7.74;100.00;100747.63;6118936;23;20073;-83
2022/11/25 00:32:20;;;;;;;17.88;4.40;;;;;;;7.74;100.00;100746.78;6093848;23;20347;-83
2022/11/25 00:34:46;;;;;;;15.60;4.15;;;;;;;7.75;100.00;100740.53;6120820;23;20564;-84
2022/11/25 00:37:11;;;;;;;12.73;3.90;;;;;;;7.73;100.00;100727.38;6118391;23;20008;-84
2022/11/25 00:39:37;;;;;;;16.45;4.15;;;;;;;7.79;100.00;100734.19;6092206;23;20013;-84
2022/11/25 00:44:46;;;;;;;14.57;3.88;;;;;;;7.72;100.00;100738.00;6117250;23;20062;-85
2022/11/25 00:47:15;;;;;;;19.38;4.68;;;;;;;7.73;100.00;100726.47;6118465;23;20055;-84
2022/11/25 00:49:52;;;;;;;14.48;3.92;;;;;;;7.66;100.00;100732.97;6093033;23;20029;-84
2022/11/25 00:52:21;;;;;;;20.02;4.22;;;;;;;7.74;100.00;100741.47;6093910;23;20090;-84
2022/11/25 00:54:47;;;;;;;19.10;4.97;;;;;;;7.71;100.00;100737.16;6118754;23;20010;-83
2022/11/25 00:57:14;;;;;;;18.55;4.97;;;;;;;7.71;100.00;100741.59;6121289;23;20021;-84
2022/11/25 00:59:39;;;;;;;18.17;4.00;;;;;;;7.64;100.00;100735.66;6120966;23;20069;-85
2022/11/25 01:02:05;;;;;;;16.50;4.72;;;;;;;7.67;100.00;100740.00;6120982;23;20080;-84
2022/11/25 01:04:31;;;;;;;14.98;4.00;;;;;;;7.59;100.00;100726.19;6121704;23;20013;-85
2022/11/25 01:06:58;;;;;;;16.95;4.10;;;;;;;7.71;100.00;100749.53;6119020;23;20579;-84
2022/11/25 01:09:24;;;;;;;14.45;4.32;;;;;;;7.72;100.00;100743.31;6120575;23;20010;-83
2022/11/25 01:11:50;;;;;;;15.70;4.97;;;;;;;7.73;100.00;100737.09;6121220;23;20394;-84
2022/11/25 01:14:16;;;;;;;15.95;4.60;;;;;;;7.79;100.00;100742.16;6121313;23;20352;-84
2022/11/25 01:16:41;;;;;;;17.10;4.68;;;;;;;7.78;100.00;100737.78;6120073;23;20010;-83
2022/11/25 01:19:07;;;;;;;20.92;4.72;;;;;;;7.80;100.00;100743.00;6119749;23;20006;-84
2022/11/25 01:21:33;;;;;;;14.88;4.65;;;;;;;7.76;100.00;100747.56;6121044;23;20014;-83
2022/11/25 01:24:00;;;;;;;14.40;4.65;;;;;;;7.74;100.00;100746.78;6121594;23;20439;-83
2022/11/25 01:26:26;;;;;;;17.58;4.10;;;;;;;7.77;100.00;100756.38;6120731;23;20006;-83
2022/11/25 01:28:54;;;;;;;15.10;3.80;;;;;;;7.81;100.00;100764.13;6120531;23;20077;-83
2022/11/25 01:31:21;;;;;;;17.38;3.85;;;;;;;7.82;100.00;100755.28;6122669;23;20427;-83
2022/11/25 01:33:51;;;;;;;17.75;4.57;;;;;;;7.88;100.00;100749.72;6121755;23;20009;-84
2022/11/25 01:36:17;;;;;;;14.93;3.90;;;;;;;7.91;100.00;100760.19;6121158;23;20419;-83
2022/11/25 01:38:44;;;;;;;16.80;4.03;;;;;;;7.91;100.00;100752.25;6121116;23;20030;-84
2022/11/25 01:41:12;;;;;;;18.73;4.68;;;;;;;7.95;100.00;100756.50;6122257;23;20088;-84
2022/11/25 01:43:39;;;;;;;15.65;4.47;;;;;;;7.99;100.00;100758.09;6122173;23;20020;-83
2022/11/25 01:46:19;;;;;;;14.57;3.97;;;;;;;7.97;100.00;100753.78;6120961;23;20013;-84
2022/11/25 01:48:50;;;;;;;16.23;4.10;;;;;;;8.07;100.00;100773.69;6121701;23;20016;-82
2022/11/25 01:51:32;;;;;;;19.65;4.90;;;;;;;8.10;100.00;100772.66;6120699;23;20014;-83
2022/11/25 01:54:02;;;;;;;19.80;4.47;;;;;;;8.15;100.00;100773.34;6120316;23;20016;-83
2022/11/25 01:56:31;;;;;;;20.02;5.10;;;;;;;8.17;100.00;100768.84;6119439;23;20006;-83
2022/11/25 01:58:56;;;;;;;13.35;4.28;;;;;;;8.20;100.00;100785.50;6122407;23;20044;-82
2022/11/25 02:01:22;;;;;;;14.65;4.18;;;;;;;8.22;100.00;100782.75;6123847;23;20376;-83
2022/11/25 02:03:50;;;;;;;10.85;3.58;;;;;;;8.22;100.00;100783.63;6130469;23;20049;-83
2022/11/25 02:06:19;;;;;;;13.23;3.75;;;;;;;8.27;100.00;100804.63;6139213;23;20006;-83
2022/11/25 02:08:48;;;;;;;17.13;4.00;;;;;;;8.26;100.00;100794.97;6121199;23;20021;-83
2022/11/25 02:11:15;;;;;;;16.75;4.57;;;;;;;8.20;100.00;100797.91;6122801;23;20009;-82
2022/11/25 02:13:42;;;;;;;14.02;3.70;;;;;;;8.24;100.00;100805.66;6123192;23;20056;-83
2022/11/25 02:16:07;;;;;;;13.18;4.35;;;;;;;8.25;100.00;100811.81;6120700;23;20010;-83
2022/11/25 02:18:32;;;;;;;14.13;4.38;;;;;;;8.27;100.00;100809.09;6122685;23;20201;-83
2022/11/25 02:20:58;;;;;;;14.70;4.28;;;;;;;8.27;100.00;100807.28;6121481;23;20026;-81
2022/11/25 02:23:47;;;;;;;13.43;3.58;;;;;;;8.31;100.00;100819.50;6120814;23;20474;-83
2022/11/25 02:26:13;;;;;;;12.75;4.18;;;;;;;8.32;100.00;100812.41;6120468;23;20029;-83
2022/11/25 02:28:38;;;;;;;14.77;3.88;;;;;;;8.31;100.00;100821.28;6121955;23;20010;-83
2022/11/25 02:31:06;;;;;;;18.02;4.28;;;;;;;8.30;100.00;100824.88;6126773;23;20436;-83
2022/11/25 02:33:31;;;;;;;18.33;3.97;;;;;;;8.24;100.00;100824.22;6125739;23;20008;-83
2022/11/25 02:36:11;;;;;;;12.98;3.38;;;;;;;8.17;100.00;100833.34;6123998;23;20005;-83
2022/11/25 02:38:42;;;;;;;13.93;3.83;;;;;;;8.08;100.00;100841.66;6128025;23;20037;-84
2022/11/25 02:41:27;;;;;;;12.57;3.80;;;;;;;7.97;100.00;100839.44;6132669;23;20013;-83
2022/11/25 02:43:53;;;;;;;14.95;4.03;;;;;;;7.91;100.00;100838.84;6126710;23;20416;-83
2022/11/25 02:46:22;;;;;;;18.73;4.03;;;;;;;7.82;100.00;100849.81;6091734;23;20005;-83
2022/11/25 02:48:48;;;;;;;14.60;4.03;;;;;;;7.73;100.00;100848.34;6119328;23;20013;-83
2022/11/25 02:51:16;;;;;;;17.70;4.00;;;;;;;7.66;100.00;100854.84;6119778;23;20042;-83
2022/11/25 02:53:41;;;;;;;18.98;4.65;;;;;;;7.62;100.00;100859.38;6094495;23;20065;-83
2022/11/25 02:56:08;;;;;;;11.73;3.90;;;;;;;7.56;100.00;100856.09;6120724;23;20002;-84
2022/11/25 02:58:33;;;;;;;14.40;3.78;;;;;;;7.53;100.00;100858.88;6121747;23;20010;-83
2022/11/25 03:00:59;;;;;;;16.95;4.03;;;;;;;7.48;100.00;100843.13;6121389;23;20383;-84
2022/11/25 03:03:24;;;;;;;11.57;3.42;;;;;;;7.40;100.00;100824.06;6123088;23;20526;-84
2022/11/25 03:05:49;;;;;;;13.10;3.53;;;;;;;7.39;100.00;100824.97;6123276;23;20081;-83
2022/11/25 03:08:15;;;;;;;13.65;3.15;;;;;;;7.28;100.00;100798.91;6122091;23;20336;-82
2022/11/25 03:10:41;;;;;;;13.55;3.65;;;;;;;7.32;100.00;100808.47;6122786;23;20013;-82
2022/11/25 03:13:07;;;;;;;14.13;3.95;;;;;;;7.27;100.00;100799.81;6120583;23;20479;-82
2022/11/25 03:15:33;;;;;;;10.32;3.60;;;;;;;7.21;100.00;100778.88;6118213;23;20018;-83
2022/11/25 03:17:59;;;;;;;10.25;3.22;;;;;;;7.18;100.00;100747.22;6120176;23;20064;-83
2022/11/25 03:20:24;;;;;;;12.63;2.95;;;;;;;7.19;100.00;100788.63;6119556;23;20013;-83
2022/11/25 03:22:50;;;;;;;13.40;2.88;;;;;;;7.18;100.00;100786.91;6119090;23;20010;-83
2022/11/25 03:25:15;;;;;;;11.57;3.45;;;;;;;7.09;100.00;100768.75;6117594;23;20001;-83
2022/11/25 03:27:41;;;;;;;10.82;2.83;;;;;;;7.08;100.00;100751.16;6116937;23;20005;-83
2022/11/25 03:30:10;;;;;;;13.63;3.25;;;;;;;7.07;100.00;100760.88;6118273;23;20009;-83
2022/11/25 03:32:35;;;;;;;13.23;3.30;;;;;;;7.05;100.00;100756.53;6117981;23;20057;-84
2022/11/25 03:35:00;;;;;;;16.30;3.40;;;;;;;7.01;100.00;100776.97;6118213;23;20518;-84
2022/11/25 03:37:26;;;;;;;9.07;2.83;;;;;;;6.93;100.00;100782.53;6118943;23;20016;-84
2022/11/25 03:39:51;;;;;;;13.30;2.80;;;;;;;6.92;100.00;100819.66;6118784;23;20074;-83
2022/11/25 03:42:16;;;;;;;13.10;2.70;;;;;;;6.91;100.00;100834.66;6120367;23;20006;-84
2022/11/25 03:44:42;;;;;;;11.65;3.08;;;;;;;6.89;100.00;100855.00;6118532;23;20388;-83
2022/11/25 03:47:07;;;;;;;8.55;2.97;;;;;;;6.87;100.00;100848.91;6119112;23;20073;-83
2022/11/25 03:49:33;;;;;;;10.98;3.38;;;;;;;6.84;100.00;100843.72;6120857;23;20603;-83
2022/11/25 03:51:58;;;;;;;10.52;3.13;;;;;;;6.84;100.00;100848.16;6120603;23;20006;-83
2022/11/25 03:54:23;;;;;;;9.07;2.75;;;;;;;6.83;100.00;100846.44;6118636;23;20013;-83
2022/11/25 03:56:49;;;;;;;8.07;2.85;;;;;;;6.83;100.00;100847.28;6120524;23;20006;-83
2022/11/25 03:59:14;;;;;;;7.25;2.83;;;;;;;6.83;100.00;100849.94;6120016;23;20349;-84
2022/11/25 04:01:39;;;;;;;7.95;2.80;;;;;;;6.82;100.00;100858.81;6119769;23;20002;-83
2022/11/25 04:04:05;;;;;;;11.02;2.65;;;;;;;6.78;100.00;100861.63;6120398;23;20035;-84
2022/11/25 04:06:31;;;;;;;8.20;2.70;;;;;;;6.78;100.00;100869.56;6118768;23;20076;-83
2022/11/25 04:08:56;;;;;;;8.70;2.55;;;;;;;6.68;100.00;100853.13;6119298;23;20033;-83
2022/11/25 04:12:45;;;;;;;8.27;3.22;;;;;;;6.60;100.00;100855.16;6121222;23;20085;-83
2022/11/25 04:14:07;;;;;;;12.02;3.20;;;;;;;6.60;100.00;100861.31;6118905;23;20018;-84
2022/11/25 04:16:32;;;;;;;12.93;3.25;;;;;;;6.62;100.00;100861.28;6120850;23;20432;-83
2022/11/25 04:18:57;;;;;;;11.70;3.30;;;;;;;6.60;100.00;100877.16;6122745;23;20133;-83
2022/11/25 04:21:25;;;;;;;9.57;3.20;;;;;;;6.63;100.00;100876.22;6124563;23;20018;-84
2022/11/25 04:23:51;;;;;;;14.00;3.13;;;;;;;6.64;100.00;100878.78;6120999;23;20045;-82
2022/11/25 04:26:16;;;;;;;10.40;2.88;;;;;;;6.61;100.00;100883.34;6124945;23;20001;-83
2022/11/25 04:28:41;;;;;;;10.80;3.40;;;;;;;6.64;100.00;100884.09;6126714;23;20057;-83
2022/11/25 04:31:08;;;;;;;9.85;3.53;;;;;;;6.60;100.00;100893.03;6124485;23;20014;-84
2022/11/25 04:33:33;;;;;;;10.18;3.75;;;;;;;6.51;100.00;100889.84;6121189;23;20017;-83
2022/11/25 04:35:59;;;;;;;8.57;3.50;;;;;;;6.44;100.00;100887.44;6119329;23;20006;-83
2022/11/25 04:38:24;;;;;;;12.65;3.47;;;;;;;6.45;100.00;100894.44;6121375;23;20435;-83
2022/11/25 04:40:49;;;;;;;12.52;3.47;;;;;;;6.48;100.00;100906.69;6122350;23;20002;-84
2022/11/25 04:43:14;;;;;;;12.80;3.63;;;;;;;6.47;100.00;100911.09;6121757;23;20006;-83
2022/11/25 04:45:40;;;;;;;12.45;4.63;;;;;;;6.43;100.00;100900.66;6094605;23;20089;-83
2022/11/25 04:48:05;;;;;;;14.98;5.18;;;;;;;6.45;100.00;100926.16;6123134;23;20010;-83
2022/11/25 04:50:30;;;;;;;10.48;3.92;;;;;;;6.38;100.00;100927.25;6123939;23;20042;-83
2022/11/25 04:52:56;;;;;;;11.35;3.20;;;;;;;6.35;100.00;100924.72;6121786;23;20021;-83
2022/11/25 04:55:21;;;;;;;11.95;3.38;;;;;;;6.26;100.00;100927.66;6120133;23;20454;-84
2022/11/25 04:57:46;;;;;;;11.13;3.15;;;;;;;6.16;100.00;100915.66;6119193;23;20438;-84
2022/11/25 05:00:12;;;;;;;11.13;3.60;;;;;;;6.09;100.00;100917.63;6119092;23;20033;-84
2022/11/25 05:02:38;;;;;;;9.00;3.10;;;;;;;6.05;100.00;100923.91;6093639;23;20384;-84
2022/11/25 05:05:03;;;;;;;7.70;3.15;;;;;;;6.02;100.00;100928.41;6119271;23;20010;-84
2022/11/25 05:07:29;;;;;;;7.95;3.22;;;;;;;5.97;100.00;100928.56;6121209;23;20009;-84
2022/11/25 05:09:55;;;;;;;13.80;4.13;;;;;;;5.99;100.00;100947.88;6121356;23;20059;-84
2022/11/25 05:12:23;;;;;;;12.50;3.85;;;;;;;5.91;100.00;100937.50;6121027;23;20382;-83
2022/11/25 05:14:49;;;;;;;10.38;3.75;;;;;;;6.03;100.00;100951.31;6119377;23;20072;-84
2022/11/25 05:17:18;;;;;;;9.57;3.85;;;;;;;6.06;100.00;100953.84;6121113;23;20073;-84
2022/11/25 05:19:44;;;;;;;10.85;4.20;;;;;;;6.03;100.00;100949.53;6122081;23;20005;-85
2022/11/25 05:22:15;;;;;;;6.47;3.40;;;;;;;6.08;100.00;100949.38;6121744;23;20021;-83
2022/11/25 05:24:40;;;;;;;12.75;3.67;;;;;;;6.04;100.00;100950.38;6095174;23;20343;-84
2022/11/25 05:27:06;;;;;;;6.53;2.80;;;;;;;5.94;100.00;100942.75;6122352;23;20099;-84
2022/11/25 05:29:32;;;;;;;8.80;3.30;;;;;;;5.90;100.00;100949.00;6122799;23;20006;-83
2022/11/25 05:31:57;;;;;;;11.43;3.33;;;;;;;5.85;100.00;100948.28;6118914;23;20017;-84
2022/11/25 05:34:22;;;;;;;8.77;3.10;;;;;;;5.87;100.00;100959.66;6119911;23;20010;-83
2022/11/25 05:36:47;;;;;;;11.55;3.22;;;;;;;5.83;100.00;100947.44;6120253;23;20061;-85
2022/11/25 05:39:13;;;;;;;9.35;3.22;;;;;;;5.82;100.00;100958.94;6120473;23;20034;-83
2022/11/25 05:41:38;;;;;;;9.00;3.03;;;;;;;5.74;100.00;100947.72;6120356;23;20006;-82
2022/11/25 05:44:04;;;;;;;11.02;3.40;;;;;;;5.78;100.00;100957.28;6118780;23;20001;-82
2022/11/25 05:46:29;;;;;;;11.02;3.30;;;;;;;5.76;100.00;100948.53;6119582;23;20033;-83
2022/11/25 05:48:55;;;;;;;8.50;3.20;;;;;;;5.71;100.00;100958.34;6119792;23;20020;-83
2022/11/25 05:51:21;;;;;;;7.03;3.05;;;;;;;5.66;100.00;100944.44;6092617;23;20336;-84
2022/11/25 05:53:46;;;;;;;9.13;3.17;;;;;;;5.68;100.00;100954.03;6092563;23;20014;-83
2022/11/25 05:56:12;;;;;;;10.75;4.82;;;;;;;5.66;100.00;100965.56;6118850;23;20012;-84
2022/11/25 05:58:37;;;;;;;9.43;3.65;;;;;;;5.62;100.00;100963.91;6119300;23;20335;-83
2022/11/25 06:01:10;;;;;;;11.25;4.40;;;;;;;5.60;100.00;100974.53;6119932;23;20064;-84
2022/11/25 06:03:35;;;;;;;8.97;4.07;;;;;;;5.52;100.00;100962.44;6092086;23;20609;-83
2022/11/25 06:06:01;;;;;;;13.25;4.70;;;;;;;5.53;100.00;100975.59;6119788;23;19997;-83
2022/11/25 06:08:26;;;;;;;8.93;4.07;;;;;;;5.47;100.00;100973.97;6119007;23;20014;-83
2022/11/25 06:10:53;;;;;;;9.40;4.72;;;;;;;5.46;100.00;100972.25;6119889;23;20029;-84
2022/11/25 06:13:19;;;;;;;13.77;5.18;;;;;;;5.41;100.00;100979.44;6118581;23;20384;-84
2022/11/25 06:15:44;;;;;;;14.75;5.28;;;;;;;5.35;100.00;100965.53;6120392;23;20020;-84
2022/11/25 06:18:11;;;;;;;11.93;5.07;;;;;;;5.43;100.00;100979.38;6123126;23;20002;-83
2022/11/25 06:20:37;;;;;;;15.48;5.40;;;;;;;5.35;100.00;100974.34;6121693;23;20006;-84
2022/11/25 06:23:03;;;;;;;16.20;5.00;;;;;;;5.33;100.00;100980.56;6121698;23;20010;-84
2022/11/25 06:25:29;;;;;;;12.90;5.10;;;;;;;5.33;100.00;100988.47;6123912;23;20009;-83
2022/11/25 06:27:54;;;;;;;12.70;5.47;;;;;;;5.29;100.00;100989.47;6123679;23;20053;-84
2022/11/25 06:30:20;;;;;;;15.45;6.75;;;;;;;5.29;100.00;100997.38;6104340;23;20006;-83
2022/11/25 06:32:46;;;;;;;16.75;6.30;;;;;;;5.32;100.00;101000.81;6126897;23;20061;-83
2022/11/25 06:35:12;;;;;;;16.15;5.97;;;;;;;5.34;100.00;100996.34;6128838;23;20002;-84
2022/11/25 06:37:39;;;;;;;12.35;4.75;;;;;;;5.27;100.00;100989.50;6121469;23;20022;-83
2022/11/25 06:40:06;;;;;;;12.95;4.95;;;;;;;5.34;100.00;101014.81;6121193;23;20005;-83
2022/11/25 06:42:31;;;;;;;15.27;5.70;;;;;;;5.30;100.00;101015.81;6127798;23;20035;-83
2022/11/25 06:44:57;;;;;;;15.40;5.57;;;;;;;5.36;100.00;101018.31;6131456;23;20006;-83
2022/11/25 06:47:22;;;;;;;16.85;5.60;;;;;;;5.33;100.00;101021.00;6135193;23;20025;-84
2022/11/25 06:49:47;;;;;;;17.33;6.38;;;;;;;5.36;100.00;101026.22;6122363;23;20454;-84
2022/11/25 06:52:13;;;;;;;16.60;6.82;;;;;;;5.33;100.00;101028.94;6120764;23;20590;-84
2022/11/25 06:54:40;;;;;;;17.33;6.53;;;;;;;5.38;100.00;101029.66;6122477;23;20435;-84
2022/11/25 06:57:10;;;;;;;15.68;6.40;;;;;;;5.34;100.00;101033.28;6099780;23;20024;-84
2022/11/25 06:59:36;;;;;;;14.68;5.95;;;;;;;5.30;100.00;101025.50;6124605;23;20013;-83
2022/11/25 07:02:02;;;;;;;14.48;6.25;;;;;;;5.32;100.00;101039.53;6093959;23;20010;-84
2022/11/25 07:04:27;;;;;;;16.13;6.72;;;;;;;5.36;100.00;101042.06;6119090;23;20014;-82
2022/11/25 07:06:53;;;;;;;19.77;8.32;;;;;;;5.29;100.00;101029.06;6094444;23;20006;-83
2022/11/25 07:09:18;;;;;;;18.08;7.50;;;;;;;5.25;100.00;101030.91;6117877;23;20064;-83
2022/11/25 07:11:44;;;;;;;19.90;7.97;;;;;;;5.26;100.00;101048.47;6120357;23;20451;-83
2022/11/25 07:14:12;;;;;;;17.55;7.90;;;;;;;5.19;100.00;101029.28;6094207;23;20010;-83
2022/11/25 07:16:40;;;;;;;25.58;9.48;;;;;;;5.24;100.00;101050.28;6118773;23;20066;-83
2022/11/25 07:19:05;;;;;;;22.35;9.10;;;;;;;5.21;100.00;101045.94;6093958;23;20013;-83
2022/11/25 07:21:32;;;;;;;21.15;9.23;;;;;;;5.25;100.00;101050.22;6119372;23;20068;-84
2022/11/25 07:24:00;;;;;;;21.23;9.32;;;;;;;5.26;100.00;101061.66;6116923;23;20010;-82
2022/11/25 07:26:28;;;;;;;23.48;9.85;;;;;;;5.17;100.00;101056.63;6120613;23;20550;-84
2022/11/25 07:28:56;;;;;;;22.80;10.55;;;;;;;5.20;100.00;101080.28;6122632;23;20005;-84
2022/11/25 07:31:34;;;;;;;24.17;9.85;;;;;;;5.12;100.00;101091.03;6122068;23;20041;-84
2022/11/25 07:34:20;;;;;;;23.02;10.82;;;;;;;5.15;100.00;101100.66;6119995;23;20005;-83
2022/11/25 07:36:47;;;;;;;25.30;10.95;;;;;;;5.17;100.00;101096.19;6121815;23;20053;-82
2022/11/25 07:39:16;;;;;;;25.63;11.57;;;;;;;5.19;100.00;101105.81;6091701;23;20089;-84
2022/11/25 07:41:42;;;;;;;27.90;11.35;;;;;;;5.14;100.00;101096.25;6119138;23;20455;-83
2022/11/25 07:44:10;;;;;;;22.23;10.75;;;;;;;5.16;100.00;101107.66;6119300;23;20061;-83
2022/11/25 07:46:38;;;;;;;24.58;11.18;;;;;;;5.15;100.00;101121.78;6119327;23;20402;-85
2022/11/25 07:49:10;;;;;;;28.05;12.18;;;;;;;5.17;100.00;101128.72;6092555;23;20084;-82
2022/11/25 07:51:41;;;;;;;26.42;13.18;;;;;;;5.17;100.00;101133.13;6118331;23;20198;-83
2022/11/25 07:54:09;;;;;;;25.65;11.70;;;;;;;5.17;100.00;101138.41;6092459;23;20168;-84
2022/11/25 07:56:36;;;;;;;27.35;11.52;;;;;;;5.24;100.00;101138.25;6119680;23;20020;-83
2022/11/25 07:59:02;;;;;;;25.83;11.85;;;;;;;5.28;100.00;101151.38;6092247;23;20017;-83
2022/11/25 08:01:27;;;;;;;30.20;11.63;;;;;;;5.28;100.00;101149.59;6114810;23;20596;-83
2022/11/25 08:03:53;;;;;;;29.83;13.30;;;;;;;5.32;100.00;101158.31;6116419;23;20006;-83
2022/11/25 08:06:22;;;;;;;27.17;12.25;;;;;;;5.32;100.00;101159.16;6116203;23;20013;-82
2022/11/25 08:08:48;;;;;;;20.73;11.65;;;;;;;5.30;100.00;101158.31;6117080;23;20005;-83
2022/11/25 08:11:21;;;;;;;23.88;11.02;;;;;;;5.26;100.00;101151.38;6117903;23;20017;-83
2022/11/25 08:13:46;;;;;;;24.13;10.20;;;;;;;5.23;100.00;101157.63;6115987;23;20045;-83
2022/11/25 08:16:14;;;;;;;24.45;9.90;;;;;;;5.34;100.00;101170.53;6117371;23;20472;-84
2022/11/25 08:18:39;;;;;;;24.35;10.35;;;;;;;5.34;100.00;101175.81;6100835;23;20010;-83
2022/11/25 08:21:08;;;;;;;20.02;9.75;;;;;;;5.37;100.00;101181.03;6119127;23;20038;-83
2022/11/25 08:23:35;;;;;;;22.50;10.27;;;;;;;5.37;100.00;101173.13;6117036;23;20006;-83
2022/11/25 08:26:24;;;;;;;23.38;9.93;;;;;;;5.40;100.00;101180.97;6119815;23;20033;-83
2022/11/25 08:28:51;;;;;;;25.60;9.90;;;;;;;5.40;100.00;101186.25;6123061;23;20010;-83
2022/11/25 08:31:20;;;;;;;20.10;10.02;;;;;;;5.43;100.00;101194.09;6118853;23;20014;-84
2022/11/25 08:33:45;;;;;;;24.73;10.10;;;;;;;5.41;100.00;101177.41;6118781;23;20088;-84
2022/11/25 08:36:11;;;;;;;19.25;10.07;;;;;;;5.52;100.00;101193.00;6120216;23;20404;-84
2022/11/25 08:38:37;;;;;;;23.13;10.35;;;;;;;5.52;100.00;101187.72;6116601;23;20429;-84
2022/11/25 08:41:07;;;;;;;27.35;10.45;;;;;;;5.56;100.00;101192.03;6094658;23;20109;-84
2022/11/25 08:43:32;;;;;;;18.45;9.73;;;;;;;5.60;100.00;101187.53;6118958;23;20412;-84
2022/11/25 08:45:57;;;;;;;21.33;10.27;;;;;;;5.60;100.00;101191.06;6093900;23;20010;-84
2022/11/25 08:48:23;;;;;;;24.50;9.57;;;;;;;5.67;100.00;101197.03;6119540;23;20112;-83
2022/11/25 08:50:51;;;;;;;22.25;10.00;;;;;;;5.72;100.00;101200.41;6095061;23;20511;-83
2022/11/25 08:53:17;;;;;;;18.98;9.90;;;;;;;5.76;100.00;101191.50;6119022;23;20037;-83
2022/11/25 08:55:42;;;;;;;20.15;8.43;;;;;;;5.82;100.00;101198.44;6092131;23;20009;-84
2022/11/25 08:58:10;;;;;;;20.08;8.50;;;;;;;5.77;100.00;101188.00;6094189;23;20002;-84
2022/11/25 09:00:36;;;;;;;21.30;8.65;;;;;;;5.86;100.00;101206.25;6125311;23;20088;-84
2022/11/25 09:03:02;;;;;;;15.80;8.30;;;;;;;5.87;100.00;101207.09;6126068;23;20028;-84
2022/11/25 09:05:28;;;;;;;17.77;7.97;;;;;;;5.89;100.00;101205.28;6121819;23;20005;-83
2022/11/25 09:07:53;;;;;;;23.92;8.30;;;;;;;5.97;100.00;101203.34;6122925;23;20033;-83
2022/11/25 09:10:19;;;;;;;20.08;7.57;;;;;;;6.04;100.00;101217.28;6121860;23;20431;-83
2022/11/25 09:12:44;;;;;;;17.52;7.45;;;;;;;6.04;100.00;101209.34;6094109;23;20761;-84
2022/11/25 09:15:10;;;;;;;17.88;7.90;;;;;;;6.11;100.00;101217.06;6123825;23;20018;-83
2022/11/25 09:17:36;;;;;;;19.20;7.60;;;;;;;6.11;100.00;101219.72;6124254;23;20524;-83
2022/11/25 09:20:04;;;;;;;21.67;8.02;;;;;;;6.20;100.00;101223.88;6123567;23;20355;-84
2022/11/25 09:22:29;;;;;;;18.17;6.82;;;;;;;6.23;100.00;101223.81;6123001;23;20420;-84
2022/11/25 09:24:55;;;;;;;17.33;7.10;;;;;;;6.27;100.00;101227.22;6122346;23;20037;-84
2022/11/25 09:27:20;;;;;;;17.80;6.93;;;;;;;6.20;100.00;101210.66;6123776;23;20166;-83
2022/11/25 09:29:45;;;;;;;14.68;6.72;;;;;;;6.32;100.00;101228.84;6122848;23;20503;-83
2022/11/25 09:32:10;;;;;;;18.67;6.38;;;;;;;6.36;100.00;101234.91;6121552;23;20009;-82
2022/11/25 09:34:36;;;;;;;16.88;7.60;;;;;;;6.39;100.00;101238.31;6122432;23;20016;-84
2022/11/25 09:37:01;;;;;;;16.60;7.13;;;;;;;6.43;100.00;101242.63;6122892;23;20554;-84
2022/11/25 09:39:28;;;;;;;19.85;6.88;;;;;;;6.48;100.00;101237.22;6121929;23;20141;-85
2022/11/25 09:47:56;;;;;;;18.10;7.07;;;;;;;6.58;100.00;101259.84;6120532;23;20057;-82
2022/11/25 09:50:47;;;;;;;18.65;6.85;;;;;;;6.56;100.00;101269.59;6121238;23;20006;-82
2022/11/25 09:53:34;;;;;;;17.63;6.15;;;;;;;6.60;100.00;101267.72;6121901;23;20005;-83
2022/11/25 09:56:03;;;;;;;15.20;6.28;;;;;;;6.58;100.00;101270.44;6118885;23;19997;-83
2022/11/25 09:58:39;;;;;;;16.00;6.50;;;;;;;6.59;100.00;101266.88;6120188;23;20006;-84
2022/11/25 10:01:19;;;;;;;17.95;6.50;;;;;;;6.65;100.00;101271.16;6119181;23;20006;-84
2022/11/25 10:03:52;;;;;;;21.25;6.38;;;;;;;6.62;100.00;101272.09;6119736;23;20022;-83
2022/11/25 10:06:27;;;;;;;19.08;6.45;;;;;;;6.69;100.00;101278.09;6121187;23;20037;-83
2022/11/25 10:08:59;;;;;;;20.52;6.07;;;;;;;6.68;100.00;101282.47;6121131;23;20005;-84
2022/11/25 10:11:43;;;;;;;15.05;5.72;;;;;;;6.71;100.00;101292.13;6120383;23;20009;-84
2022/11/25 10:14:24;;;;;;;15.43;5.85;;;;;;;6.74;100.00;101287.63;6121090;23;20020;-84
2022/11/25 10:16:59;;;;;;;17.38;6.70;;;;;;;6.82;100.00;101291.84;6119840;23;20633;-84
2022/11/25 10:19:44;;;;;;;18.27;6.15;;;;;;;6.80;100.00;101294.50;6121272;23;20013;-84
2022/11/25 10:24:45;;;;;;;18.20;6.45;;;;;;;6.91;100.00;101307.44;6117338;23;20529;-84
2022/11/25 10:27:20;;;;;;;20.40;6.05;;;;;;;6.95;100.00;101314.38;6094944;23;20006;-84
2022/11/25 10:30:00;;;;;;;17.00;5.80;;;;;;;6.99;100.00;101318.69;6120415;23;20057;-84
2022/11/25 10:32:32;;;;;;;16.60;5.82;;;;;;;7.07;100.00;101332.56;6122408;23;20014;-84
2022/11/25 10:35:03;;;;;;;14.43;5.70;;;;;;;7.08;100.00;101328.16;6126682;23;20016;-82
2022/11/25 10:37:43;;;;;;;15.05;4.65;;;;;;;7.11;100.00;101328.06;6121516;23;20010;-83
2022/11/25 10:40:17;;;;;;;14.98;4.72;;;;;;;7.15;100.00;101332.34;6123710;23;20014;-83
2022/11/25 10:42:42;;;;;;;12.82;4.55;;;;;;;7.13;100.00;101332.38;6122423;23;20009;-83
2022/11/25 10:45:10;;;;;;;13.57;4.57;;;;;;;7.22;100.00;101336.53;6122025;23;20364;-83
2022/11/25 10:47:51;;;;;;;14.07;4.25;;;;;;;7.18;100.00;101334.88;6118029;23;20048;-83
2022/11/25 10:50:22;;;;;;;14.90;5.63;;;;;;;7.26;100.00;101337.31;6120234;23;20006;-84
2022/11/25 10:53:08;;;;;;;11.82;3.97;;;;;;;7.32;100.00;101338.03;6119184;23;20428;-83
2022/11/25 10:55:34;;;;;;;12.98;4.85;;;;;;;7.35;100.00;101334.41;6104335;23;20010;-83
2022/11/25 10:58:28;;;;;;;12.60;4.13;;;;;;;7.39;100.00;101350.16;6121076;23;20077;-84
2022/11/25 11:01:04;;;;;;;12.35;4.90;;;;;;;7.43;100.00;101346.50;6121458;23;20005;-84
2022/11/25 11:03:29;;;;;;;13.93;4.28;;;;;;;7.48;100.00;101347.25;6120801;23;20056;-83
2022/11/25 11:05:54;;;;;;;11.80;4.63;;;;;;;7.54;100.00;101362.09;6120747;23;20009;-84
2022/11/25 11:08:23;;;;;;;13.57;4.88;;;;;;;7.57;100.00;101359.34;6121538;23;20032;-84
2022/11/25 11:11:13;;;;;;;11.98;4.90;;;;;;;7.58;100.00;101358.44;6120885;23;20093;-83
2022/11/25 11:13:38;;;;;;;9.65;4.80;;;;;;;7.58;100.00;101344.31;6120429;23;20057;-83
2022/11/25 11:16:03;;;;;;;14.35;4.93;;;;;;;7.64;100.00;101368.81;6119053;23;20038;-87
2022/11/25 11:18:35;;;;;;;9.65;4.20;;;;;;;7.71;100.00;101365.09;6094909;23;20005;-82
2022/11/25 11:21:00;;;;;;;14.35;4.95;;;;;;;7.72;100.00;101372.09;6121271;23;20009;-84
2022/11/25 11:23:27;;;;;;;11.10;4.05;;;;;;;7.75;100.00;101365.88;6089319;23;20404;-83
2022/11/25 11:26:02;;;;;;;7.90;3.53;;;;;;;7.77;100.00;101382.56;6091840;23;20061;-83
2022/11/25 11:28:35;;;;;;;11.77;4.32;;;;;;;7.79;100.00;101385.19;6092406;23;20033;-84
2022/11/25 11:31:06;;;;;;;12.05;4.38;;;;;;;7.78;100.00;101384.31;6093584;23;20010;-83